createdAt,value
2022-10-29T00:01:02.495Z,15.20
2022-10-29T00:03:29.228Z,15.20
2022-10-29T00:06:01.585Z,15.10
2022-10-29T00:08:32.887Z,15.10
2022-10-29T00:11:28.210Z,15.10
2022-10-29T00:13:57.579Z,15.10
2022-10-29T00:16:28.673Z,15.10
2022-10-29T00:18:56.796Z,14.90
2022-10-29T00:21:25.947Z,14.90
2022-10-29T00:23:53.542Z,14.90
2022-10-29T00:26:22.152Z,14.90
2022-10-29T00:28:51.367Z,14.90
2022-10-29T00:31:19.376Z,14.70
2022-10-29T00:33:48.265Z,14.80
2022-10-29T00:36:17.835Z,14.80
2022-10-29T00:38:45.363Z,14.70
2022-10-29T00:41:15.625Z,14.70
2022-10-29T00:43:47.369Z,14.70
2022-10-29T00:46:32.892Z,14.70
2022-10-29T00:49:00.998Z,14.70
2022-10-29T00:51:29.963Z,14.70
2022-10-29T00:54:03.631Z,14.70
2022-10-29T00:56:36.300Z,14.70
2022-10-29T00:59:04.338Z,14.60
2022-10-29T01:01:31.161Z,14.60
2022-10-29T01:04:00.150Z,14.60
2022-10-29T01:06:28.898Z,14.60
2022-10-29T01:08:55.567Z,14.60
2022-10-29T01:11:50.134Z,14.50
2022-10-29T01:14:22.693Z,14.50
2022-10-29T01:16:56.043Z,14.40
2022-10-29T01:19:50.058Z,14.40
2022-10-29T01:22:54.544Z,14.40
2022-10-29T01:25:33.112Z,14.40
2022-10-29T01:28:27.134Z,14.40
2022-10-29T01:31:44.526Z,14.30
2022-10-29T01:34:53.716Z,14.40
2022-10-29T01:37:33.671Z,14.30
2022-10-29T01:40:24.473Z,14.30
2022-10-29T01:43:06.415Z,14.30
2022-10-29T01:45:49.462Z,14.30
2022-10-29T01:48:20.277Z,14.20
2022-10-29T01:50:52.402Z,14.20
2022-10-29T01:53:22.398Z,14.20
2022-10-29T01:55:51.822Z,14.20
2022-10-29T01:58:19.290Z,14.20
2022-10-29T02:01:34.409Z,14.20
2022-10-29T02:04:22.604Z,14.10
2022-10-29T02:07:14.041Z,14.10
2022-10-29T02:10:01.812Z,14.10
2022-10-29T02:12:34.630Z,14.10
2022-10-29T02:15:06.364Z,14.10
2022-10-29T02:17:34.196Z,14.00
2022-10-29T02:20:09.925Z,14.00
2022-10-29T02:22:36.649Z,14.00
2022-10-29T02:25:04.479Z,13.90
2022-10-29T02:27:31.274Z,13.90
2022-10-29T02:29:58.046Z,13.90
2022-10-29T02:32:24.687Z,13.80
2022-10-29T02:34:51.372Z,13.80
2022-10-29T02:37:18.058Z,13.90
2022-10-29T02:39:44.737Z,13.80
2022-10-29T02:42:11.406Z,13.80
2022-10-29T02:44:38.038Z,13.70
2022-10-29T02:47:04.684Z,13.70
2022-10-29T02:49:31.285Z,13.70
2022-10-29T02:52:00.310Z,13.80
2022-10-29T02:54:27.019Z,13.80
2022-10-29T02:56:53.659Z,13.70
2022-10-29T02:59:20.299Z,13.80
2022-10-29T03:01:47.068Z,13.70
2022-10-29T03:04:13.885Z,13.70
2022-10-29T03:06:40.565Z,13.70
2022-10-29T03:09:07.292Z,13.80
2022-10-29T03:11:34.005Z,13.90
2022-10-29T03:14:00.717Z,13.90
2022-10-29T03:16:27.385Z,14.00
2022-10-29T03:18:54.027Z,14.10
2022-10-29T03:21:20.693Z,14.20
2022-10-29T03:23:47.371Z,14.20
2022-10-29T03:26:16.632Z,14.20
2022-10-29T03:28:43.370Z,14.20
2022-10-29T03:31:10.120Z,14.20
2022-10-29T03:33:37.042Z,14.10
2022-10-29T03:36:06.837Z,14.10
2022-10-29T03:38:34.454Z,14.10
2022-10-29T03:41:01.373Z,14.00
2022-10-29T03:43:27.996Z,14.00
2022-10-29T03:45:56.305Z,14.00
2022-10-29T03:48:26.593Z,13.90
2022-10-29T03:51:07.842Z,13.90
2022-10-29T03:53:38.233Z,13.80
2022-10-29T03:56:06.597Z,13.80
2022-10-29T03:58:35.654Z,13.70
2022-10-29T04:01:07.759Z,13.60
2022-10-29T04:03:36.456Z,13.50
2022-10-29T04:06:10.208Z,13.50
2022-10-29T04:08:36.934Z,13.40
2022-10-29T04:11:03.717Z,13.40
2022-10-29T04:13:30.371Z,13.30
2022-10-29T04:15:57.521Z,13.30
2022-10-29T04:18:24.770Z,13.30
2022-10-29T04:29:18.756Z,13.10
2022-10-29T04:31:45.508Z,13.00
2022-10-29T04:34:12.187Z,13.00
2022-10-29T04:36:43.300Z,13.00
2022-10-29T04:39:18.299Z,12.90
2022-10-29T04:41:49.531Z,12.90
2022-10-29T04:44:16.229Z,12.80
2022-10-29T04:46:45.052Z,12.80
2022-10-29T04:49:11.773Z,12.80
2022-10-29T04:51:38.988Z,12.80
2022-10-29T04:54:05.612Z,12.80
2022-10-29T04:56:32.236Z,12.80
2022-10-29T04:58:59.008Z,12.80
2022-10-29T05:01:28.027Z,12.70
2022-10-29T05:03:58.876Z,12.60
2022-10-29T05:06:28.998Z,12.60
2022-10-29T05:08:55.666Z,12.60
2022-10-29T05:11:22.397Z,12.70
2022-10-29T05:13:49.091Z,12.70
2022-10-29T05:16:15.794Z,12.70
2022-10-29T05:18:42.516Z,12.70
2022-10-29T05:21:09.376Z,12.70
2022-10-29T05:23:38.801Z,12.60
2022-10-29T05:26:05.710Z,12.70
2022-10-29T05:28:34.225Z,12.60
2022-10-29T05:31:03.445Z,12.60
2022-10-29T05:33:30.081Z,12.60
2022-10-29T05:35:58.784Z,12.60
2022-10-29T05:38:27.650Z,12.60
2022-10-29T05:40:54.401Z,12.50
2022-10-29T05:43:21.099Z,12.50
2022-10-29T05:45:47.817Z,12.50
2022-10-29T05:48:14.630Z,12.50
2022-10-29T05:50:41.327Z,12.50
2022-10-29T05:53:11.257Z,12.30
2022-10-29T05:55:38.247Z,12.30
2022-10-29T05:58:12.484Z,12.40
2022-10-29T06:00:43.888Z,12.40
2022-10-29T06:03:15.352Z,12.30
2022-10-29T06:05:42.292Z,12.30
2022-10-29T06:08:09.529Z,12.40
2022-10-29T06:10:36.332Z,12.40
2022-10-29T06:13:09.067Z,12.40
2022-10-29T06:15:38.265Z,12.40
2022-10-29T06:18:05.006Z,12.50
2022-10-29T06:20:32.440Z,12.50
2022-10-29T06:22:59.509Z,12.50
2022-10-29T06:25:29.072Z,12.50
2022-10-29T06:28:07.680Z,12.50
2022-10-29T06:30:36.166Z,12.60
2022-10-29T06:33:04.571Z,12.60
2022-10-29T06:35:32.045Z,12.60
2022-10-29T06:38:01.811Z,12.70
2022-10-29T06:40:29.841Z,12.70
2022-10-29T06:43:04.692Z,12.80
2022-10-29T06:45:32.017Z,12.80
2022-10-29T06:47:59.158Z,12.80
2022-10-29T06:50:26.833Z,12.90
2022-10-29T06:53:03.938Z,13.00
2022-10-29T06:55:30.800Z,12.90
2022-10-29T06:58:01.318Z,13.00
2022-10-29T07:00:32.213Z,13.00
2022-10-29T07:03:02.030Z,13.10
2022-10-29T07:05:29.084Z,13.10
2022-10-29T07:07:57.864Z,13.10
2022-10-29T07:10:26.469Z,13.20
2022-10-29T07:12:53.229Z,13.30
2022-10-29T07:15:27.820Z,13.30
2022-10-29T07:17:56.550Z,13.30
2022-10-29T07:20:26.192Z,13.30
2022-10-29T07:22:52.980Z,13.40
2022-10-29T07:25:20.125Z,13.40
2022-10-29T07:27:49.102Z,13.50
2022-10-29T07:30:16.900Z,13.50
2022-10-29T07:32:43.730Z,13.60
2022-10-29T07:35:12.966Z,13.70
2022-10-29T07:37:39.719Z,13.70
2022-10-29T07:40:07.218Z,13.80
2022-10-29T07:42:33.852Z,13.80
2022-10-29T07:45:00.620Z,13.90
2022-10-29T07:47:27.269Z,14.00
2022-10-29T07:49:53.977Z,14.10
2022-10-29T07:52:22.798Z,14.30
2022-10-29T07:54:51.658Z,14.40
2022-10-29T07:57:18.393Z,14.50
2022-10-29T07:59:46.764Z,14.60
2022-10-29T08:02:16.019Z,14.70
2022-10-29T08:04:42.771Z,15.00
2022-10-29T08:07:09.485Z,15.20
2022-10-29T08:09:36.142Z,15.40
2022-10-29T08:12:05.075Z,15.60
2022-10-29T08:14:34.320Z,15.90
2022-10-29T08:17:03.840Z,16.20
2022-10-29T08:19:33.225Z,16.50
2022-10-29T08:21:59.931Z,16.80
2022-10-29T08:24:28.805Z,17.10
2022-10-29T08:26:55.455Z,17.30
2022-10-29T08:29:22.513Z,17.60
2022-10-29T08:31:49.265Z,17.90
2022-10-29T08:34:16.139Z,18.10
2022-10-29T08:36:42.850Z,18.20
2022-10-29T08:39:09.496Z,18.40
2022-10-29T08:41:51.966Z,18.40
2022-10-29T08:44:27.607Z,18.50
2022-10-29T08:47:09.429Z,18.60
2022-10-29T08:50:02.597Z,18.70
2022-10-29T08:52:48.334Z,18.80
2022-10-29T08:55:38.062Z,19.00
2022-10-29T08:58:24.142Z,19.10
2022-10-29T09:00:58.984Z,19.30
2022-10-29T09:03:30.216Z,19.40
2022-10-29T09:06:22.988Z,19.60
2022-10-29T09:09:10.448Z,19.80
2022-10-29T09:11:52.816Z,20.00
2022-10-29T09:14:19.492Z,20.00
2022-10-29T09:16:57.034Z,20.10
2022-10-29T09:19:41.743Z,20.30
2022-10-29T09:22:24.090Z,20.60
2022-10-29T09:25:02.129Z,20.80
2022-10-29T09:27:59.343Z,21.00
2022-10-29T09:30:30.206Z,21.10
2022-10-29T09:33:02.336Z,21.10
2022-10-29T09:35:46.417Z,21.20
2022-10-29T09:38:45.041Z,21.50
2022-10-29T09:41:12.746Z,21.70
2022-10-29T09:43:48.270Z,21.80
2022-10-29T09:46:35.899Z,22.00
2022-10-29T09:49:39.477Z,22.70
2022-10-29T09:52:19.078Z,23.30
2022-10-29T09:54:46.540Z,24.10
2022-10-29T09:57:29.493Z,24.50
2022-10-29T10:00:00.264Z,24.80
2022-10-29T10:02:35.156Z,25.30
2022-10-29T10:05:16.245Z,25.60
2022-10-29T10:08:02.988Z,25.70
2022-10-29T10:10:30.265Z,26.30
2022-10-29T10:13:03.742Z,27.30
2022-10-29T10:15:36.677Z,28.30
2022-10-29T10:18:07.385Z,29.10
2022-10-29T10:20:44.389Z,29.80
2022-10-29T10:23:43.687Z,30.30
2022-10-29T10:26:35.390Z,30.20
2022-10-29T10:29:17.477Z,30.30
2022-10-29T10:31:50.836Z,30.30
2022-10-29T10:34:26.445Z,30.10
2022-10-29T10:36:54.614Z,30.00
2022-10-29T10:39:46.555Z,29.90
2022-10-29T10:42:23.099Z,30.10
2022-10-29T10:45:02.196Z,30.30
2022-10-29T10:47:33.278Z,30.30
2022-10-29T10:50:18.865Z,30.20
2022-10-29T10:52:48.889Z,29.60
2022-10-29T10:55:26.132Z,29.40
2022-10-29T10:58:08.453Z,29.30
2022-10-29T11:00:56.387Z,29.30
2022-10-29T11:03:39.075Z,29.40
2022-10-29T11:06:19.556Z,29.50
2022-10-29T11:09:02.541Z,29.90
2022-10-29T11:11:58.934Z,30.80
2022-10-29T11:14:34.656Z,31.40
2022-10-29T11:17:20.112Z,31.50
2022-10-29T11:19:50.028Z,30.90
2022-10-29T11:22:22.602Z,30.40
2022-10-29T11:25:13.918Z,30.20
2022-10-29T11:28:01.029Z,30.60
2022-10-29T11:30:35.163Z,30.70
2022-10-29T11:33:40.992Z,31.00
2022-10-29T11:36:30.100Z,30.90
2022-10-29T11:39:27.966Z,30.90
2022-10-29T11:41:59.555Z,30.70
2022-10-29T11:44:27.418Z,30.80
2022-10-29T11:47:26.927Z,30.60
2022-10-29T11:50:27.806Z,30.30
2022-10-29T11:53:21.629Z,30.80
2022-10-29T11:56:13.869Z,30.70
2022-10-29T11:59:18.323Z,30.10
2022-10-29T12:02:05.100Z,29.50
2022-10-29T12:04:47.373Z,29.40
2022-10-29T12:07:49.422Z,29.80
2022-10-29T12:10:19.116Z,29.70
2022-10-29T12:13:11.056Z,29.80
2022-10-29T12:15:56.434Z,29.60
2022-10-29T12:18:45.561Z,29.30
2022-10-29T12:21:29.642Z,29.10
2022-10-29T12:24:11.584Z,28.70
2022-10-29T12:26:46.539Z,28.60
2022-10-29T12:29:19.455Z,28.00
2022-10-29T12:32:13.419Z,27.40
2022-10-29T12:34:55.363Z,27.30
2022-10-29T12:37:28.884Z,27.70
2022-10-29T12:40:02.824Z,28.00
2022-10-29T12:42:30.505Z,28.20
2022-10-29T12:45:24.374Z,27.70
2022-10-29T12:48:09.537Z,27.20
2022-10-29T12:51:18.398Z,26.60
2022-10-29T12:54:00.209Z,26.40
2022-10-29T12:56:28.802Z,26.30
2022-10-29T12:59:28.055Z,26.10
2022-10-29T13:02:18.394Z,26.00
2022-10-29T13:05:10.136Z,25.80
2022-10-29T13:07:48.469Z,25.50
2022-10-29T13:10:30.497Z,25.50
2022-10-29T13:12:59.958Z,25.50
2022-10-29T13:15:34.959Z,25.80
2022-10-29T13:18:25.546Z,25.90
2022-10-29T13:21:06.324Z,26.00
2022-10-29T13:23:37.721Z,26.60
2022-10-29T13:26:05.821Z,27.00
2022-10-29T13:28:35.425Z,27.60
2022-10-29T13:31:02.086Z,28.00
2022-10-29T13:33:30.171Z,27.80
2022-10-29T13:36:00.150Z,27.70
2022-10-29T13:38:35.501Z,27.70
2022-10-29T13:41:14.161Z,27.30
2022-10-29T13:44:04.665Z,27.20
2022-10-29T13:46:49.738Z,26.60
2022-10-29T13:49:42.411Z,25.90
2022-10-29T13:52:09.059Z,25.60
2022-10-29T13:55:00.224Z,25.40
2022-10-29T13:57:35.925Z,25.50
2022-10-29T14:00:20.273Z,25.70
2022-10-29T14:03:18.655Z,25.70
2022-10-29T14:05:53.275Z,25.40
2022-10-29T14:08:48.195Z,25.30
2022-10-29T14:11:22.270Z,25.00
2022-10-29T14:13:51.596Z,24.90
2022-10-29T14:16:27.188Z,24.70
2022-10-29T14:18:54.216Z,24.60
2022-10-29T14:21:25.493Z,24.30
2022-10-29T14:23:58.389Z,24.10
2022-10-29T14:26:26.598Z,23.80
2022-10-29T14:28:54.436Z,23.70
2022-10-29T14:31:25.917Z,23.50
2022-10-29T14:33:54.180Z,23.40
2022-10-29T14:36:20.830Z,23.30
2022-10-29T14:38:56.953Z,23.10
2022-10-29T14:41:25.515Z,23.10
2022-10-29T14:44:17.332Z,23.00
2022-10-29T14:47:11.649Z,22.90
2022-10-29T14:49:43.866Z,22.90
2022-10-29T14:52:33.705Z,22.80
2022-10-29T14:55:07.166Z,22.70
2022-10-29T14:57:41.735Z,22.70
2022-10-29T15:00:21.528Z,22.70
2022-10-29T15:02:50.521Z,22.70
2022-10-29T15:05:23.944Z,22.70
2022-10-29T15:08:03.126Z,22.60
2022-10-29T15:10:29.891Z,22.60
2022-10-29T15:12:57.467Z,22.50
2022-10-29T15:15:27.147Z,22.50
2022-10-29T15:17:58.793Z,22.40
2022-10-29T15:20:45.502Z,22.30
2022-10-29T15:23:27.529Z,22.20
2022-10-29T15:26:26.970Z,22.10
2022-10-29T15:28:55.818Z,22.00
2022-10-29T15:31:43.221Z,22.00
2022-10-29T15:34:18.761Z,22.00
2022-10-29T15:36:47.949Z,21.90
2022-10-29T15:39:26.924Z,21.90
2022-10-29T15:42:00.538Z,21.80
2022-10-29T15:44:36.349Z,21.70
2022-10-29T15:47:20.197Z,21.60
2022-10-29T15:49:46.921Z,21.50
2022-10-29T15:52:18.014Z,21.40
2022-10-29T15:54:45.602Z,21.30
2022-10-29T15:57:14.345Z,21.20
2022-10-29T15:59:41.578Z,21.10
2022-10-29T16:02:15.342Z,20.90
2022-10-29T16:04:42.109Z,20.80
2022-10-29T16:07:16.738Z,20.70
2022-10-29T16:09:49.208Z,20.60
2022-10-29T16:12:16.075Z,20.50
2022-10-29T16:14:42.869Z,20.40
2022-10-29T16:17:15.325Z,20.30
2022-10-29T16:19:42.123Z,20.20
2022-10-29T16:22:18.950Z,20.20
2022-10-29T16:24:45.792Z,20.10
2022-10-29T16:27:19.474Z,20.10
2022-10-29T16:29:47.035Z,20.00
2022-10-29T16:32:16.503Z,20.00
2022-10-29T16:34:43.550Z,19.90
2022-10-29T16:37:15.398Z,19.80
2022-10-29T16:39:44.669Z,19.70
2022-10-29T16:42:31.760Z,19.60
2022-10-29T16:44:58.910Z,19.50
2022-10-29T16:47:27.798Z,19.40
2022-10-29T16:49:54.525Z,19.40
2022-10-29T16:52:24.184Z,19.30
2022-10-29T16:54:53.112Z,19.20
2022-10-29T16:57:19.771Z,19.10
2022-10-29T16:59:46.518Z,19.10
2022-10-29T17:02:13.205Z,19.00
2022-10-29T17:04:40.021Z,19.00
2022-10-29T17:07:06.765Z,18.80
2022-10-29T17:09:35.353Z,18.70
2022-10-29T17:12:02.730Z,18.60
2022-10-29T17:14:29.398Z,18.60
2022-10-29T17:16:57.289Z,18.50
2022-10-29T17:19:26.765Z,18.50
2022-10-29T17:21:58.681Z,18.50
2022-10-29T17:24:26.560Z,18.50
2022-10-29T17:26:53.913Z,18.50
2022-10-29T17:29:20.686Z,18.40
2022-10-29T17:31:47.434Z,18.40
2022-10-29T17:34:14.083Z,18.30
2022-10-29T17:36:46.519Z,18.20
2022-10-29T17:39:13.210Z,18.20
2022-10-29T17:41:42.069Z,18.10
2022-10-29T17:44:08.747Z,18.00
2022-10-29T17:46:37.797Z,18.00
2022-10-29T17:49:04.606Z,17.90
2022-10-29T17:51:33.824Z,17.90
2022-10-29T17:54:03.169Z,17.80
2022-10-29T17:56:32.306Z,17.80
2022-10-29T17:58:59.191Z,17.70
2022-10-29T18:01:25.950Z,17.70
2022-10-29T18:03:52.649Z,17.60
2022-10-29T18:06:21.542Z,17.50
2022-10-29T18:08:49.514Z,17.50
2022-10-29T18:11:18.781Z,17.40
2022-10-29T18:13:46.647Z,17.40
2022-10-29T18:16:18.265Z,17.40
2022-10-29T18:19:01.134Z,17.20
2022-10-29T18:21:32.231Z,17.10
2022-10-29T18:23:59.011Z,17.10
2022-10-29T18:26:32.927Z,17.00
2022-10-29T18:29:04.656Z,17.00
2022-10-29T18:31:32.150Z,16.90
2022-10-29T18:34:01.609Z,16.90
2022-10-29T18:36:28.316Z,16.80
2022-10-29T18:38:56.747Z,16.80
2022-10-29T18:41:24.401Z,16.70
2022-10-29T18:43:51.754Z,16.70
2022-10-29T18:46:18.993Z,16.60
2022-10-29T18:48:47.372Z,16.60
2022-10-29T18:51:19.807Z,16.50
2022-10-29T18:53:47.041Z,16.50
2022-10-29T18:56:16.471Z,16.40
2022-10-29T18:58:44.006Z,16.40
2022-10-29T19:01:22.761Z,16.40
2022-10-29T19:03:51.382Z,16.30
2022-10-29T19:06:18.661Z,16.30
2022-10-29T19:08:45.890Z,16.30
2022-10-29T19:11:15.519Z,16.30
2022-10-29T19:13:42.431Z,16.30
2022-10-29T19:16:15.160Z,16.20
2022-10-29T19:18:41.844Z,16.20
2022-10-29T19:21:19.418Z,16.20
2022-10-29T19:23:48.918Z,16.20
2022-10-29T19:26:17.767Z,16.10
2022-10-29T19:28:46.025Z,16.10
2022-10-29T19:31:20.485Z,16.10
2022-10-29T19:33:55.403Z,16.00
2022-10-29T19:36:26.269Z,15.90
2022-10-29T19:38:53.090Z,15.90
2022-10-29T19:41:20.247Z,15.80
2022-10-29T19:43:49.281Z,15.80
2022-10-29T19:46:18.631Z,15.70
2022-10-29T19:48:50.310Z,15.70
2022-10-29T19:51:17.684Z,15.70
2022-10-29T19:53:44.895Z,15.70
2022-10-29T19:56:14.144Z,15.60
2022-10-29T19:58:43.332Z,15.60
2022-10-29T20:01:18.997Z,15.60
2022-10-29T20:03:47.023Z,15.60
2022-10-29T20:06:17.665Z,15.60
2022-10-29T20:08:44.571Z,15.60
2022-10-29T20:11:11.253Z,15.60
2022-10-29T20:13:39.704Z,15.50
2022-10-29T20:16:11.581Z,15.50
2022-10-29T20:18:38.544Z,15.60
2022-10-29T20:23:38.974Z,15.60
2022-10-29T20:26:06.640Z,15.70
2022-10-29T20:28:34.198Z,15.70
2022-10-29T20:31:27.817Z,15.80
2022-10-29T20:34:00.471Z,15.70
2022-10-29T20:36:32.185Z,15.70
2022-10-29T20:39:01.483Z,15.70
2022-10-29T20:41:31.494Z,15.70
2022-10-29T20:44:00.997Z,15.70
2022-10-29T20:46:28.155Z,15.70
2022-10-29T20:48:55.181Z,15.60
2022-10-29T20:51:23.105Z,15.60
2022-10-29T20:53:52.756Z,15.60
2022-10-29T20:56:23.145Z,15.50
2022-10-29T20:58:52.505Z,15.50
2022-10-29T21:01:21.448Z,15.50
2022-10-29T21:03:51.937Z,15.40
2022-10-29T21:06:19.192Z,15.30
2022-10-29T21:08:50.912Z,15.30
2022-10-29T21:11:21.291Z,15.30
2022-10-29T21:13:48.364Z,15.40
2022-10-29T21:16:18.051Z,15.40
2022-10-29T21:18:47.301Z,15.50
2022-10-29T21:21:14.796Z,15.50
2022-10-29T21:23:42.009Z,15.40
2022-10-29T21:26:17.000Z,15.40
2022-10-29T21:28:43.948Z,15.40
2022-10-29T21:31:10.659Z,15.30
2022-10-29T21:33:38.224Z,15.30
2022-10-29T21:36:05.426Z,15.30
2022-10-29T21:38:33.249Z,15.30
2022-10-29T21:41:03.122Z,15.30
2022-10-29T21:43:30.299Z,15.30
2022-10-29T21:45:56.966Z,15.30
2022-10-29T21:48:28.357Z,15.30
2022-10-29T21:51:12.333Z,15.40
2022-10-29T21:53:44.524Z,15.40
2022-10-29T21:56:13.750Z,15.40
2022-10-29T21:58:41.110Z,15.30
2022-10-29T22:01:15.481Z,15.40
2022-10-29T22:03:46.556Z,15.30
2022-10-29T22:06:21.790Z,15.30
2022-10-29T22:08:53.619Z,15.20
2022-10-29T22:11:20.402Z,15.20
2022-10-29T22:13:47.040Z,15.30
2022-10-29T22:16:14.113Z,15.30
2022-10-29T22:18:41.218Z,15.30
2022-10-29T22:21:10.485Z,15.30
2022-10-29T22:23:42.477Z,15.30
2022-10-29T22:26:09.243Z,15.30
2022-10-29T22:28:35.885Z,15.20
2022-10-29T22:31:04.270Z,15.20
2022-10-29T22:33:31.614Z,15.20
2022-10-29T22:36:08.799Z,15.30
2022-10-29T22:38:35.875Z,15.20
2022-10-29T22:41:10.774Z,15.20
2022-10-29T22:43:37.861Z,15.20
2022-10-29T22:46:05.953Z,15.20
2022-10-29T22:48:32.946Z,15.20
2022-10-29T22:51:13.576Z,15.20
2022-10-29T22:53:40.966Z,15.20
2022-10-29T22:56:32.569Z,15.10
2022-10-29T22:58:59.394Z,15.10
2022-10-29T23:01:29.675Z,15.10
2022-10-29T23:04:00.690Z,15.10
2022-10-29T23:06:28.424Z,15.10
2022-10-29T23:08:58.502Z,15.10
2022-10-29T23:11:27.632Z,15.10
2022-10-29T23:13:59.021Z,15.10
2022-10-29T23:16:30.498Z,15.10
2022-10-29T23:19:01.348Z,15.10
2022-10-29T23:21:31.138Z,15.20
2022-10-29T23:23:58.415Z,15.20
2022-10-29T23:26:25.706Z,15.20
2022-10-29T23:28:55.156Z,15.20
2022-10-29T23:31:30.674Z,15.20
2022-10-29T23:33:58.393Z,15.20
2022-10-29T23:36:26.624Z,15.20
2022-10-29T23:39:01.097Z,15.20
2022-10-29T23:41:29.502Z,15.20
2022-10-29T23:43:56.274Z,15.20
2022-10-29T23:46:22.933Z,15.20
2022-10-29T23:48:52.240Z,15.20
2022-10-29T23:51:21.988Z,15.20
2022-10-29T23:53:51.617Z,15.20
2022-10-29T23:56:21.575Z,15.20
2022-10-29T23:58:48.171Z,15.10
